Date,TemperatureHighF,TemperatureAvgF,TemperatureLowF,DewpointHighF,DewpointAvgF,DewpointLowF,HumidityHigh,HumidityAvg,HumidityLow,PressureMaxIn,PressureMinIn,WindSpeedMaxMPH,WindSpeedAvgMPH,GustSpeedMaxMPH,PrecipitationSumIn
2013-2-1,50.4,37.0,25.6,25.0,21.5,16.8,81,57,27,30.21,30.02,25,2,28,0.00
2013-2-2,58.1,38.7,25.7,23.8,18.2,1.3,81,50,11,30.34,30.20,24,1,24,0.00
2013-2-3,52.4,38.5,26.2,22.1,17.5,1.6,76,47,13,30.26,29.88,14,0,18,0.01
2013-2-4,54.9,39.7,27.1,17.8,13.2,3.1,60,38,14,29.99,29.84,22,0,22,0.00
2013-2-5,34.0,31.6,29.4,18.6,17.8,16.9,64,56,49,30.00,29.93,8,0,9,0.00
2013-2-8,51.2,51.1,51.1,20.3,20.3,20.1,29,29,29,29.72,29.71,0,0,0,0.00
2013-2-9,38.2,33.8,27.1,32.4,28.2,23.0,91,81,60,29.61,29.50,14,2,14,0.00
2013-2-10,36.4,28.6,23.1,23.0,16.7,9.5,90,64,34,30.04,29.56,20,1,20,0.00
2013-2-11,32.6,24.2,17.1,19.0,15.9,13.2,86,71,50,30.04,29.92,9,0,9,0.00
2013-2-12,40.8,27.4,15.8,15.1,6.9,-5.9,86,50,14,30.03,29.97,11,0,11,0.00
2013-2-13,46.4,32.4,21.8,14.5,11.2,7.9,62,43,24,30.02,29.90,27,1,28,0.00
2013-2-14,36.3,30.4,24.2,25.1,20.9,16.9,89,68,48,30.29,30.06,23,2,24,0.01
2013-2-15,39.4,27.5,16.7,22.4,17.0,12.5,86,67,34,30.30,30.21,21,1,21,0.00
2013-2-16,54.4,38.4,21.8,20.1,13.9,8.4,81,44,17,30.21,29.97,20,1,23,0.00
2013-2-17,59.9,41.4,27.0,20.2,3.6,-38.7,61,30,1,29.97,29.53,26,2,26,0.00
2013-2-18,41.0,32.8,23.5,22.7,11.5,-2.1,78,45,17,30.08,29.77,32,1,34,0.01
2013-2-19,41.4,24.2,18.2,14.8,9.3,6.1,66,54,30,30.07,29.76,11,0,12,0.01
2013-2-20,35.7,27.5,20.9,30.3,20.2,12.7,92,75,48,29.77,29.59,12,1,13,0.00
2013-2-21,30.6,22.1,16.7,22.8,18.2,14.3,92,85,69,29.87,29.66,11,0,12,6.16
2013-2-22,36.6,25.8,14.6,22.4,17.7,11.4,87,73,48,29.92,29.80,12,0,12,0.02
2013-2-23,47.6,31.7,18.3,28.0,19.2,11.3,92,63,30,29.84,29.55,16,2,17,0.00
2013-2-24,29.4,26.7,19.3,27.3,24.7,17.3,92,92,92,30.10,29.68,22,2,23,0.01
2013-2-25,42.1,25.1,10.3,24.1,14.9,7.7,92,68,31,30.08,29.80,11,0,12,0.00
2013-2-26,36.6,26.4,19.5,30.1,22.0,12.5,92,83,71,30.12,29.75,15,2,18,0.00
2013-2-27,38.4,28.5,17.6,21.1,15.6,10.8,86,61,34,30.23,30.12,16,0,16,0.00
2013-2-28,43.2,30.0,14.6,17.5,11.7,7.1,74,50,26,30.25,30.14,17,1,17,0.01